sensor_id;sensor_type;location;lat;lon;timestamp;P1;durP1;ratioP1;P2;durP2;ratioP2
19643;SDS011;9970;-36.854;174.870;2023-05-27T00:00:26;3.63;;;2.67;;
19643;SDS011;9970;-36.854;174.870;2023-05-27T00:03:00;3.47;;;3.10;;
19643;SDS011;9970;-36.854;174.870;2023-05-27T00:05:33;3.07;;;2.80;;
19643;SDS011;9970;-36.854;174.870;2023-05-27T00:08:06;2.43;;;2.33;;
19643;SDS011;9970;-36.854;174.870;2023-05-27T00:10:39;3.00;;;2.23;;
19643;SDS011;9970;-36.854;174.870;2023-05-27T00:13:12;2.40;;;2.23;;
19643;SDS011;9970;-36.854;174.870;2023-05-27T00:15:45;2.63;;;1.97;;
19643;SDS011;9970;-36.854;174.870;2023-05-27T00:18:19;3.00;;;2.00;;
19643;SDS011;9970;-36.854;174.870;2023-05-27T00:20:52;2.60;;;2.50;;
19643;SDS011;9970;-36.854;174.870;2023-05-27T00:23:27;2.47;;;2.37;;
19643;SDS011;9970;-36.854;174.870;2023-05-27T00:26:00;3.37;;;2.60;;
19643;SDS011;9970;-36.854;174.870;2023-05-27T00:28:33;4.00;;;2.20;;
19643;SDS011;9970;-36.854;174.870;2023-05-27T00:31:06;12.17;;;2.73;;
19643;SDS011;9970;-36.854;174.870;2023-05-27T00:33:39;3.20;;;2.60;;
19643;SDS011;9970;-36.854;174.870;2023-05-27T00:36:13;2.30;;;2.20;;
19643;SDS011;9970;-36.854;174.870;2023-05-27T00:38:46;3.53;;;2.60;;
19643;SDS011;9970;-36.854;174.870;2023-05-27T00:41:19;4.73;;;2.40;;
19643;SDS011;9970;-36.854;174.870;2023-05-27T00:43:53;2.97;;;2.77;;
19643;SDS011;9970;-36.854;174.870;2023-05-27T00:46:27;2.53;;;2.43;;
19643;SDS011;9970;-36.854;174.870;2023-05-27T00:49:00;2.90;;;2.80;;
19643;SDS011;9970;-36.854;174.870;2023-05-27T00:51:33;11.33;;;3.27;;
19643;SDS011;9970;-36.854;174.870;2023-05-27T00:54:11;3.17;;;2.90;;
19643;SDS011;9970;-36.854;174.870;2023-05-27T00:56:40;3.80;;;2.30;;
19643;SDS011;9970;-36.854;174.870;2023-05-27T00:59:14;4.63;;;2.67;;
19643;SDS011;9970;-36.854;174.870;2023-05-27T01:01:47;2.73;;;2.63;;
19643;SDS011;9970;-36.854;174.870;2023-05-27T01:04:20;2.70;;;2.50;;
19643;SDS011;9970;-36.854;174.870;2023-05-27T01:07:03;3.17;;;2.70;;
19643;SDS011;9970;-36.854;174.870;2023-05-27T01:10:23;2.67;;;2.57;;
19643;SDS011;9970;-36.854;174.870;2023-05-27T01:15:10;3.30;;;3.10;;
19643;SDS011;9970;-36.854;174.870;2023-05-27T01:17:43;4.10;;;2.67;;
19643;SDS011;9970;-36.854;174.870;2023-05-27T01:20:18;8.20;;;3.40;;
19643;SDS011;9970;-36.854;174.870;2023-05-27T01:22:52;9.70;;;3.87;;
19643;SDS011;9970;-36.854;174.870;2023-05-27T01:25:29;3.30;;;3.00;;
19643;SDS011;9970;-36.854;174.870;2023-05-27T01:28:02;3.13;;;3.03;;
19643;SDS011;9970;-36.854;174.870;2023-05-27T01:30:36;9.30;;;3.13;;
19643;SDS011;9970;-36.854;174.870;2023-05-27T01:33:09;3.73;;;3.23;;
19643;SDS011;9970;-36.854;174.870;2023-05-27T01:35:51;3.43;;;3.07;;
19643;SDS011;9970;-36.854;174.870;2023-05-27T01:38:25;6.23;;;3.67;;
19643;SDS011;9970;-36.854;174.870;2023-05-27T01:40:59;4.23;;;3.73;;
19643;SDS011;9970;-36.854;174.870;2023-05-27T01:43:33;8.73;;;3.73;;
19643;SDS011;9970;-36.854;174.870;2023-05-27T01:46:08;7.57;;;3.63;;
19643;SDS011;9970;-36.854;174.870;2023-05-27T01:48:41;4.90;;;4.50;;
19643;SDS011;9970;-36.854;174.870;2023-05-27T01:51:14;8.83;;;4.47;;
19643;SDS011;9970;-36.854;174.870;2023-05-27T01:53:51;4.67;;;4.30;;
19643;SDS011;9970;-36.854;174.870;2023-05-27T01:56:24;3.53;;;3.43;;
19643;SDS011;9970;-36.854;174.870;2023-05-27T01:58:57;4.07;;;3.60;;
19643;SDS011;9970;-36.854;174.870;2023-05-27T02:01:35;4.27;;;3.57;;
19643;SDS011;9970;-36.854;174.870;2023-05-27T02:04:08;4.07;;;2.70;;
19643;SDS011;9970;-36.854;174.870;2023-05-27T02:06:40;6.07;;;2.90;;
19643;SDS011;9970;-36.854;174.870;2023-05-27T02:09:13;5.23;;;2.10;;
19643;SDS011;9970;-36.854;174.870;2023-05-27T02:11:46;2.70;;;2.20;;
19643;SDS011;9970;-36.854;174.870;2023-05-27T02:14:19;1.80;;;1.80;;
19643;SDS011;9970;-36.854;174.870;2023-05-27T02:16:52;2.53;;;1.80;;
19643;SDS011;9970;-36.854;174.870;2023-05-27T02:19:25;2.33;;;2.00;;
19643;SDS011;9970;-36.854;174.870;2023-05-27T02:21:59;3.40;;;2.13;;
19643;SDS011;9970;-36.854;174.870;2023-05-27T02:24:31;2.00;;;1.90;;
19643;SDS011;9970;-36.854;174.870;2023-05-27T02:27:05;1.97;;;1.83;;
19643;SDS011;9970;-36.854;174.870;2023-05-27T02:29:40;2.67;;;1.80;;
19643;SDS011;9970;-36.854;174.870;2023-05-27T02:32:13;1.93;;;1.83;;
19643;SDS011;9970;-36.854;174.870;2023-05-27T02:34:46;2.03;;;1.83;;
19643;SDS011;9970;-36.854;174.870;2023-05-27T02:37:19;5.43;;;1.97;;
19643;SDS011;9970;-36.854;174.870;2023-05-27T02:39:53;1.80;;;1.67;;
19643;SDS011;9970;-36.854;174.870;2023-05-27T02:42:27;1.67;;;1.47;;
19643;SDS011;9970;-36.854;174.870;2023-05-27T02:45:00;2.23;;;1.97;;
19643;SDS011;9970;-36.854;174.870;2023-05-27T02:47:34;2.33;;;1.93;;
19643;SDS011;9970;-36.854;174.870;2023-05-27T02:50:07;5.20;;;1.80;;
19643;SDS011;9970;-36.854;174.870;2023-05-27T02:52:40;3.13;;;1.70;;
19643;SDS011;9970;-36.854;174.870;2023-05-27T02:55:13;3.17;;;2.33;;
19643;SDS011;9970;-36.854;174.870;2023-05-27T02:57:46;2.53;;;1.90;;
19643;SDS011;9970;-36.854;174.870;2023-05-27T03:00:19;4.43;;;1.70;;
19643;SDS011;9970;-36.854;174.870;2023-05-27T03:02:52;2.33;;;1.87;;
19643;SDS011;9970;-36.854;174.870;2023-05-27T03:05:31;5.50;;;2.00;;
19643;SDS011;9970;-36.854;174.870;2023-05-27T03:08:05;12.93;;;2.80;;
19643;SDS011;9970;-36.854;174.870;2023-05-27T03:10:38;11.00;;;6.47;;
19643;SDS011;9970;-36.854;174.870;2023-05-27T03:13:10;5.83;;;2.40;;
19643;SDS011;9970;-36.854;174.870;2023-05-27T03:15:43;2.73;;;1.90;;
19643;SDS011;9970;-36.854;174.870;2023-05-27T03:18:17;8.50;;;2.50;;
19643;SDS011;9970;-36.854;174.870;2023-05-27T03:20:49;5.90;;;2.00;;
19643;SDS011;9970;-36.854;174.870;2023-05-27T03:23:22;2.33;;;1.80;;
19643;SDS011;9970;-36.854;174.870;2023-05-27T03:25:55;2.07;;;1.83;;
19643;SDS011;9970;-36.854;174.870;2023-05-27T03:28:28;8.03;;;3.43;;
19643;SDS011;9970;-36.854;174.870;2023-05-27T03:31:01;2.27;;;1.70;;
19643;SDS011;9970;-36.854;174.870;2023-05-27T03:33:35;7.03;;;1.60;;
19643;SDS011;9970;-36.854;174.870;2023-05-27T03:36:08;2.30;;;1.40;;
19643;SDS011;9970;-36.854;174.870;2023-05-27T03:38:41;5.90;;;1.83;;
19643;SDS011;9970;-36.854;174.870;2023-05-27T03:41:14;4.00;;;1.43;;
19643;SDS011;9970;-36.854;174.870;2023-05-27T03:43:47;1.50;;;1.40;;
19643;SDS011;9970;-36.854;174.870;2023-05-27T03:46:20;2.17;;;2.07;;
19643;SDS011;9970;-36.854;174.870;2023-05-27T03:48:52;3.67;;;1.70;;
19643;SDS011;9970;-36.854;174.870;2023-05-27T03:51:26;2.67;;;2.57;;
19643;SDS011;9970;-36.854;174.870;2023-05-27T03:53:59;2.30;;;1.53;;
19643;SDS011;9970;-36.854;174.870;2023-05-27T03:56:34;3.70;;;1.97;;
19643;SDS011;9970;-36.854;174.870;2023-05-27T03:59:06;7.10;;;2.27;;
19643;SDS011;9970;-36.854;174.870;2023-05-27T04:01:42;11.20;;;3.57;;
19643;SDS011;9970;-36.854;174.870;2023-05-27T04:04:15;2.83;;;1.60;;
19643;SDS011;9970;-36.854;174.870;2023-05-27T04:06:48;6.97;;;1.87;;
19643;SDS011;9970;-36.854;174.870;2023-05-27T04:09:22;1.67;;;1.57;;
19643;SDS011;9970;-36.854;174.870;2023-05-27T04:11:55;1.40;;;1.30;;
19643;SDS011;9970;-36.854;174.870;2023-05-27T04:14:29;2.90;;;1.87;;
19643;SDS011;9970;-36.854;174.870;2023-05-27T04:17:01;2.20;;;1.57;;
19643;SDS011;9970;-36.854;174.870;2023-05-27T04:19:34;1.20;;;1.20;;
19643;SDS011;9970;-36.854;174.870;2023-05-27T04:22:07;0.90;;;0.90;;
19643;SDS011;9970;-36.854;174.870;2023-05-27T04:24:40;1.70;;;1.20;;
19643;SDS011;9970;-36.854;174.870;2023-05-27T04:27:13;2.83;;;1.10;;
19643;SDS011;9970;-36.854;174.870;2023-05-27T04:29:47;3.13;;;2.33;;
19643;SDS011;9970;-36.854;174.870;2023-05-27T04:32:20;2.80;;;1.20;;
19643;SDS011;9970;-36.854;174.870;2023-05-27T04:34:53;3.07;;;1.40;;
19643;SDS011;9970;-36.854;174.870;2023-05-27T04:37:26;4.93;;;1.50;;
19643;SDS011;9970;-36.854;174.870;2023-05-27T04:39:59;2.10;;;1.30;;
19643;SDS011;9970;-36.854;174.870;2023-05-27T04:42:33;2.30;;;1.27;;
19643;SDS011;9970;-36.854;174.870;2023-05-27T04:45:09;1.67;;;1.30;;
19643;SDS011;9970;-36.854;174.870;2023-05-27T04:47:42;2.20;;;1.47;;
19643;SDS011;9970;-36.854;174.870;2023-05-27T04:50:15;2.97;;;1.20;;
19643;SDS011;9970;-36.854;174.870;2023-05-27T04:52:48;2.50;;;1.50;;
19643;SDS011;9970;-36.854;174.870;2023-05-27T04:55:22;2.00;;;1.40;;
19643;SDS011;9970;-36.854;174.870;2023-05-27T04:57:56;3.90;;;1.80;;
19643;SDS011;9970;-36.854;174.870;2023-05-27T05:00:29;2.73;;;1.40;;
19643;SDS011;9970;-36.854;174.870;2023-05-27T05:03:20;3.60;;;1.63;;
19643;SDS011;9970;-36.854;174.870;2023-05-27T05:05:54;1.93;;;1.83;;
19643;SDS011;9970;-36.854;174.870;2023-05-27T05:08:27;9.93;;;2.53;;
19643;SDS011;9970;-36.854;174.870;2023-05-27T05:11:00;13.97;;;2.30;;
19643;SDS011;9970;-36.854;174.870;2023-05-27T05:13:33;4.37;;;3.90;;
19643;SDS011;9970;-36.854;174.870;2023-05-27T05:16:09;2.60;;;2.40;;
19643;SDS011;9970;-36.854;174.870;2023-05-27T05:18:41;3.37;;;3.17;;
19643;SDS011;9970;-36.854;174.870;2023-05-27T05:21:14;1.90;;;1.70;;
19643;SDS011;9970;-36.854;174.870;2023-05-27T05:23:47;2.50;;;1.37;;
19643;SDS011;9970;-36.854;174.870;2023-05-27T05:26:20;3.53;;;1.53;;
19643;SDS011;9970;-36.854;174.870;2023-05-27T05:28:53;1.77;;;1.30;;
19643;SDS011;9970;-36.854;174.870;2023-05-27T05:31:26;4.83;;;1.80;;
19643;SDS011;9970;-36.854;174.870;2023-05-27T05:33:59;2.60;;;1.57;;
19643;SDS011;9970;-36.854;174.870;2023-05-27T05:36:32;5.20;;;1.70;;
19643;SDS011;9970;-36.854;174.870;2023-05-27T05:39:05;1.20;;;1.20;;
19643;SDS011;9970;-36.854;174.870;2023-05-27T05:41:39;1.83;;;1.80;;
19643;SDS011;9970;-36.854;174.870;2023-05-27T05:44:14;4.40;;;1.90;;
19643;SDS011;9970;-36.854;174.870;2023-05-27T05:46:47;3.10;;;2.90;;
19643;SDS011;9970;-36.854;174.870;2023-05-27T05:49:20;3.13;;;1.50;;
19643;SDS011;9970;-36.854;174.870;2023-05-27T05:51:53;3.23;;;1.90;;
19643;SDS011;9970;-36.854;174.870;2023-05-27T05:54:26;1.73;;;1.47;;
19643;SDS011;9970;-36.854;174.870;2023-05-27T05:57:02;1.13;;;1.13;;
19643;SDS011;9970;-36.854;174.870;2023-05-27T05:59:35;2.00;;;1.50;;
19643;SDS011;9970;-36.854;174.870;2023-05-27T06:02:08;1.30;;;1.20;;
19643;SDS011;9970;-36.854;174.870;2023-05-27T06:04:42;2.07;;;1.40;;
19643;SDS011;9970;-36.854;174.870;2023-05-27T06:07:16;2.30;;;1.10;;
19643;SDS011;9970;-36.854;174.870;2023-05-27T06:09:49;1.90;;;1.50;;
19643;SDS011;9970;-36.854;174.870;2023-05-27T06:12:22;3.10;;;1.40;;
19643;SDS011;9970;-36.854;174.870;2023-05-27T06:14:58;1.67;;;1.30;;
19643;SDS011;9970;-36.854;174.870;2023-05-27T06:17:31;2.63;;;1.23;;
19643;SDS011;9970;-36.854;174.870;2023-05-27T06:20:04;4.00;;;2.20;;
19643;SDS011;9970;-36.854;174.870;2023-05-27T06:22:38;2.10;;;1.70;;
19643;SDS011;9970;-36.854;174.870;2023-05-27T06:25:11;2.47;;;1.40;;
19643;SDS011;9970;-36.854;174.870;2023-05-27T06:27:45;8.23;;;2.40;;
19643;SDS011;9970;-36.854;174.870;2023-05-27T06:30:18;1.80;;;1.73;;
19643;SDS011;9970;-36.854;174.870;2023-05-27T06:32:51;2.37;;;1.33;;
19643;SDS011;9970;-36.854;174.870;2023-05-27T06:35:24;1.57;;;1.47;;
19643;SDS011;9970;-36.854;174.870;2023-05-27T06:37:58;1.97;;;1.60;;
19643;SDS011;9970;-36.854;174.870;2023-05-27T06:40:31;2.60;;;2.00;;
19643;SDS011;9970;-36.854;174.870;2023-05-27T06:43:04;4.40;;;1.57;;
19643;SDS011;9970;-36.854;174.870;2023-05-27T06:45:37;2.00;;;1.90;;
19643;SDS011;9970;-36.854;174.870;2023-05-27T06:48:11;1.90;;;1.80;;
19643;SDS011;9970;-36.854;174.870;2023-05-27T06:50:44;2.90;;;1.53;;
19643;SDS011;9970;-36.854;174.870;2023-05-27T06:53:17;6.40;;;1.80;;
19643;SDS011;9970;-36.854;174.870;2023-05-27T06:55:50;4.97;;;1.40;;
19643;SDS011;9970;-36.854;174.870;2023-05-27T06:58:27;1.67;;;1.57;;
19643;SDS011;9970;-36.854;174.870;2023-05-27T07:01:01;1.63;;;1.53;;
19643;SDS011;9970;-36.854;174.870;2023-05-27T07:03:33;4.87;;;2.10;;
19643;SDS011;9970;-36.854;174.870;2023-05-27T07:06:07;1.33;;;1.33;;
19643;SDS011;9970;-36.854;174.870;2023-05-27T07:08:41;3.00;;;1.47;;
19643;SDS011;9970;-36.854;174.870;2023-05-27T07:11:14;2.77;;;1.47;;
19643;SDS011;9970;-36.854;174.870;2023-05-27T07:13:47;1.47;;;1.40;;
19643;SDS011;9970;-36.854;174.870;2023-05-27T07:16:20;3.40;;;1.30;;
19643;SDS011;9970;-36.854;174.870;2023-05-27T07:18:53;4.83;;;1.87;;
19643;SDS011;9970;-36.854;174.870;2023-05-27T07:21:26;3.03;;;2.30;;
19643;SDS011;9970;-36.854;174.870;2023-05-27T07:24:00;6.63;;;1.73;;
19643;SDS011;9970;-36.854;174.870;2023-05-27T07:26:33;3.80;;;1.10;;
19643;SDS011;9970;-36.854;174.870;2023-05-27T07:29:08;4.97;;;1.50;;
19643;SDS011;9970;-36.854;174.870;2023-05-27T07:31:41;4.77;;;1.53;;
19643;SDS011;9970;-36.854;174.870;2023-05-27T07:34:14;1.80;;;1.63;;
19643;SDS011;9970;-36.854;174.870;2023-05-27T07:36:47;1.03;;;1.03;;
19643;SDS011;9970;-36.854;174.870;2023-05-27T07:39:20;1.67;;;1.57;;
19643;SDS011;9970;-36.854;174.870;2023-05-27T07:41:53;1.90;;;1.80;;
19643;SDS011;9970;-36.854;174.870;2023-05-27T07:44:26;2.33;;;2.13;;
19643;SDS011;9970;-36.854;174.870;2023-05-27T07:46:59;1.47;;;1.47;;
19643;SDS011;9970;-36.854;174.870;2023-05-27T07:49:32;2.90;;;1.50;;
19643;SDS011;9970;-36.854;174.870;2023-05-27T07:52:06;2.57;;;2.37;;
19643;SDS011;9970;-36.854;174.870;2023-05-27T07:54:39;4.87;;;2.03;;
19643;SDS011;9970;-36.854;174.870;2023-05-27T07:57:13;4.00;;;1.43;;
19643;SDS011;9970;-36.854;174.870;2023-05-27T07:59:46;3.27;;;1.37;;
19643;SDS011;9970;-36.854;174.870;2023-05-27T08:02:19;1.70;;;1.60;;
19643;SDS011;9970;-36.854;174.870;2023-05-27T08:04:53;6.70;;;1.70;;
19643;SDS011;9970;-36.854;174.870;2023-05-27T08:07:26;2.57;;;1.27;;
19643;SDS011;9970;-36.854;174.870;2023-05-27T08:09:59;1.60;;;1.50;;
19643;SDS011;9970;-36.854;174.870;2023-05-27T08:12:32;2.07;;;1.27;;
19643;SDS011;9970;-36.854;174.870;2023-05-27T08:15:05;1.83;;;1.73;;
19643;SDS011;9970;-36.854;174.870;2023-05-27T08:17:39;1.60;;;1.50;;
19643;SDS011;9970;-36.854;174.870;2023-05-27T08:20:13;6.80;;;2.17;;
19643;SDS011;9970;-36.854;174.870;2023-05-27T08:22:46;9.50;;;2.40;;
19643;SDS011;9970;-36.854;174.870;2023-05-27T08:25:19;2.70;;;1.60;;
19643;SDS011;9970;-36.854;174.870;2023-05-27T08:27:55;5.00;;;2.30;;
19643;SDS011;9970;-36.854;174.870;2023-05-27T08:30:29;4.97;;;2.37;;
19643;SDS011;9970;-36.854;174.870;2023-05-27T08:33:03;1.13;;;1.13;;
19643;SDS011;9970;-36.854;174.870;2023-05-27T08:35:36;6.37;;;1.77;;
19643;SDS011;9970;-36.854;174.870;2023-05-27T08:38:09;1.63;;;1.57;;
19643;SDS011;9970;-36.854;174.870;2023-05-27T08:40:42;1.70;;;1.60;;
19643;SDS011;9970;-36.854;174.870;2023-05-27T08:43:15;1.23;;;1.20;;
19643;SDS011;9970;-36.854;174.870;2023-05-27T08:45:50;3.13;;;1.60;;
19643;SDS011;9970;-36.854;174.870;2023-05-27T08:48:26;3.80;;;1.50;;
19643;SDS011;9970;-36.854;174.870;2023-05-27T08:50:59;2.33;;;2.23;;
19643;SDS011;9970;-36.854;174.870;2023-05-27T08:53:32;3.30;;;1.40;;
19643;SDS011;9970;-36.854;174.870;2023-05-27T08:56:05;2.30;;;1.80;;
19643;SDS011;9970;-36.854;174.870;2023-05-27T08:58:39;1.90;;;1.30;;
19643;SDS011;9970;-36.854;174.870;2023-05-27T09:01:14;1.70;;;1.50;;
19643;SDS011;9970;-36.854;174.870;2023-05-27T09:03:49;2.43;;;1.20;;
19643;SDS011;9970;-36.854;174.870;2023-05-27T09:06:27;2.10;;;1.60;;
19643;SDS011;9970;-36.854;174.870;2023-05-27T09:09:00;1.57;;;1.47;;
19643;SDS011;9970;-36.854;174.870;2023-05-27T09:11:34;5.03;;;1.50;;
19643;SDS011;9970;-36.854;174.870;2023-05-27T09:14:09;10.83;;;2.07;;
19643;SDS011;9970;-36.854;174.870;2023-05-27T09:16:55;2.23;;;2.00;;
19643;SDS011;9970;-36.854;174.870;2023-05-27T09:19:29;1.30;;;1.30;;
19643;SDS011;9970;-36.854;174.870;2023-05-27T09:22:02;2.80;;;1.47;;
19643;SDS011;9970;-36.854;174.870;2023-05-27T09:24:35;3.07;;;1.30;;
19643;SDS011;9970;-36.854;174.870;2023-05-27T09:27:09;3.80;;;1.57;;
19643;SDS011;9970;-36.854;174.870;2023-05-27T09:29:42;2.53;;;2.20;;
19643;SDS011;9970;-36.854;174.870;2023-05-27T09:32:23;8.23;;;2.40;;
19643;SDS011;9970;-36.854;174.870;2023-05-27T09:34:50;2.60;;;1.50;;
19643;SDS011;9970;-36.854;174.870;2023-05-27T09:37:31;3.33;;;1.50;;
19643;SDS011;9970;-36.854;174.870;2023-05-27T09:40:07;4.23;;;1.60;;
19643;SDS011;9970;-36.854;174.870;2023-05-27T09:42:45;2.10;;;1.57;;
19643;SDS011;9970;-36.854;174.870;2023-05-27T09:45:19;3.33;;;1.53;;
19643;SDS011;9970;-36.854;174.870;2023-05-27T09:47:53;3.37;;;1.93;;
19643;SDS011;9970;-36.854;174.870;2023-05-27T09:50:26;5.70;;;1.63;;
19643;SDS011;9970;-36.854;174.870;2023-05-27T09:53:00;7.30;;;1.70;;
19643;SDS011;9970;-36.854;174.870;2023-05-27T09:55:35;5.03;;;1.70;;
19643;SDS011;9970;-36.854;174.870;2023-05-27T09:58:07;4.60;;;1.90;;
19643;SDS011;9970;-36.854;174.870;2023-05-27T10:00:42;5.10;;;1.80;;
19643;SDS011;9970;-36.854;174.870;2023-05-27T10:03:21;2.47;;;1.80;;
19643;SDS011;9970;-36.854;174.870;2023-05-27T10:05:54;2.83;;;1.87;;
19643;SDS011;9970;-36.854;174.870;2023-05-27T10:08:33;7.93;;;1.90;;
19643;SDS011;9970;-36.854;174.870;2023-05-27T10:11:11;3.70;;;1.70;;
19643;SDS011;9970;-36.854;174.870;2023-05-27T10:13:44;3.50;;;1.47;;
19643;SDS011;9970;-36.854;174.870;2023-05-27T10:16:26;3.10;;;1.87;;
19643;SDS011;9970;-36.854;174.870;2023-05-27T10:18:55;1.83;;;1.33;;
19643;SDS011;9970;-36.854;174.870;2023-05-27T10:21:29;2.97;;;1.43;;
19643;SDS011;9970;-36.854;174.870;2023-05-27T10:24:02;2.50;;;2.20;;
19643;SDS011;9970;-36.854;174.870;2023-05-27T10:26:38;3.70;;;2.03;;
19643;SDS011;9970;-36.854;174.870;2023-05-27T10:29:17;4.70;;;1.37;;
19643;SDS011;9970;-36.854;174.870;2023-05-27T10:31:50;2.50;;;1.67;;
19643;SDS011;9970;-36.854;174.870;2023-05-27T10:34:23;2.60;;;2.00;;
19643;SDS011;9970;-36.854;174.870;2023-05-27T10:36:59;2.00;;;1.80;;
19643;SDS011;9970;-36.854;174.870;2023-05-27T10:39:32;2.07;;;1.30;;
19643;SDS011;9970;-36.854;174.870;2023-05-27T10:42:06;3.90;;;1.57;;
19643;SDS011;9970;-36.854;174.870;2023-05-27T10:44:39;3.43;;;2.40;;
19643;SDS011;9970;-36.854;174.870;2023-05-27T10:47:12;7.30;;;2.13;;
19643;SDS011;9970;-36.854;174.870;2023-05-27T10:49:45;4.97;;;1.47;;
19643;SDS011;9970;-36.854;174.870;2023-05-27T10:52:20;2.07;;;1.37;;
19643;SDS011;9970;-36.854;174.870;2023-05-27T10:54:56;1.90;;;1.53;;
19643;SDS011;9970;-36.854;174.870;2023-05-27T10:57:33;4.83;;;1.80;;
19643;SDS011;9970;-36.854;174.870;2023-05-27T11:00:06;7.83;;;2.63;;
19643;SDS011;9970;-36.854;174.870;2023-05-27T11:02:44;2.77;;;2.00;;
19643;SDS011;9970;-36.854;174.870;2023-05-27T11:05:19;1.70;;;1.40;;
19643;SDS011;9970;-36.854;174.870;2023-05-27T11:07:53;5.90;;;1.30;;
19643;SDS011;9970;-36.854;174.870;2023-05-27T11:10:26;1.63;;;1.50;;
19643;SDS011;9970;-36.854;174.870;2023-05-27T11:12:59;2.80;;;1.30;;
19643;SDS011;9970;-36.854;174.870;2023-05-27T11:15:32;1.50;;;1.40;;
19643;SDS011;9970;-36.854;174.870;2023-05-27T11:18:05;9.67;;;2.13;;
19643;SDS011;9970;-36.854;174.870;2023-05-27T11:20:39;2.43;;;1.40;;
19643;SDS011;9970;-36.854;174.870;2023-05-27T11:23:12;2.23;;;1.67;;
19643;SDS011;9970;-36.854;174.870;2023-05-27T11:25:45;1.47;;;1.37;;
19643;SDS011;9970;-36.854;174.870;2023-05-27T11:28:18;1.70;;;1.57;;
19643;SDS011;9970;-36.854;174.870;2023-05-27T11:30:51;4.30;;;1.80;;
19643;SDS011;9970;-36.854;174.870;2023-05-27T11:33:32;6.50;;;1.90;;
19643;SDS011;9970;-36.854;174.870;2023-05-27T11:36:10;7.47;;;2.07;;
19643;SDS011;9970;-36.854;174.870;2023-05-27T11:38:50;1.30;;;1.30;;
19643;SDS011;9970;-36.854;174.870;2023-05-27T11:41:30;3.23;;;1.50;;
19643;SDS011;9970;-36.854;174.870;2023-05-27T11:44:06;2.07;;;1.87;;
19643;SDS011;9970;-36.854;174.870;2023-05-27T11:46:41;5.70;;;1.90;;
19643;SDS011;9970;-36.854;174.870;2023-05-27T11:49:14;6.20;;;1.87;;
19643;SDS011;9970;-36.854;174.870;2023-05-27T11:51:50;3.13;;;1.60;;
19643;SDS011;9970;-36.854;174.870;2023-05-27T11:54:26;7.53;;;2.47;;
19643;SDS011;9970;-36.854;174.870;2023-05-27T11:57:01;8.13;;;2.73;;
19643;SDS011;9970;-36.854;174.870;2023-05-27T11:59:36;3.07;;;2.27;;
19643;SDS011;9970;-36.854;174.870;2023-05-27T12:02:09;4.70;;;2.07;;
19643;SDS011;9970;-36.854;174.870;2023-05-27T12:04:42;3.03;;;1.77;;
19643;SDS011;9970;-36.854;174.870;2023-05-27T12:07:15;6.47;;;2.20;;
19643;SDS011;9970;-36.854;174.870;2023-05-27T12:09:48;5.43;;;1.80;;
19643;SDS011;9970;-36.854;174.870;2023-05-27T12:12:21;7.20;;;1.90;;
19643;SDS011;9970;-36.854;174.870;2023-05-27T12:14:54;4.43;;;2.53;;
19643;SDS011;9970;-36.854;174.870;2023-05-27T12:17:27;1.67;;;1.60;;
19643;SDS011;9970;-36.854;174.870;2023-05-27T12:20:00;2.73;;;1.70;;
19643;SDS011;9970;-36.854;174.870;2023-05-27T12:22:34;7.17;;;2.03;;
19643;SDS011;9970;-36.854;174.870;2023-05-27T12:25:08;8.47;;;1.70;;
19643;SDS011;9970;-36.854;174.870;2023-05-27T12:27:41;2.43;;;1.63;;
19643;SDS011;9970;-36.854;174.870;2023-05-27T12:30:14;3.70;;;1.90;;
19643;SDS011;9970;-36.854;174.870;2023-05-27T12:32:47;3.73;;;1.93;;
19643;SDS011;9970;-36.854;174.870;2023-05-27T12:35:20;1.83;;;1.73;;
19643;SDS011;9970;-36.854;174.870;2023-05-27T12:37:53;3.20;;;1.60;;
19643;SDS011;9970;-36.854;174.870;2023-05-27T12:40:26;8.30;;;2.10;;
19643;SDS011;9970;-36.854;174.870;2023-05-27T12:42:59;4.03;;;1.93;;
19643;SDS011;9970;-36.854;174.870;2023-05-27T12:45:33;7.63;;;2.40;;
19643;SDS011;9970;-36.854;174.870;2023-05-27T12:48:06;3.30;;;1.77;;
19643;SDS011;9970;-36.854;174.870;2023-05-27T12:50:39;13.27;;;2.90;;
19643;SDS011;9970;-36.854;174.870;2023-05-27T12:53:12;11.57;;;1.97;;
19643;SDS011;9970;-36.854;174.870;2023-05-27T12:55:45;5.80;;;1.83;;
19643;SDS011;9970;-36.854;174.870;2023-05-27T12:58:19;2.33;;;2.13;;
19643;SDS011;9970;-36.854;174.870;2023-05-27T13:00:52;8.60;;;2.60;;
19643;SDS011;9970;-36.854;174.870;2023-05-27T13:03:25;2.63;;;1.73;;
19643;SDS011;9970;-36.854;174.870;2023-05-27T13:06:01;10.60;;;2.17;;
19643;SDS011;9970;-36.854;174.870;2023-05-27T13:08:34;5.03;;;2.20;;
19643;SDS011;9970;-36.854;174.870;2023-05-27T13:11:08;5.70;;;1.90;;
19643;SDS011;9970;-36.854;174.870;2023-05-27T13:13:41;4.50;;;1.90;;
19643;SDS011;9970;-36.854;174.870;2023-05-27T13:16:13;6.43;;;2.10;;
19643;SDS011;9970;-36.854;174.870;2023-05-27T13:18:46;1.70;;;1.60;;
19643;SDS011;9970;-36.854;174.870;2023-05-27T13:21:19;2.40;;;2.30;;
19643;SDS011;9970;-36.854;174.870;2023-05-27T13:23:52;3.30;;;2.30;;
19643;SDS011;9970;-36.854;174.870;2023-05-27T13:26:25;3.27;;;2.07;;
19643;SDS011;9970;-36.854;174.870;2023-05-27T13:29:00;2.27;;;2.13;;
19643;SDS011;9970;-36.854;174.870;2023-05-27T13:31:32;6.03;;;2.17;;
19643;SDS011;9970;-36.854;174.870;2023-05-27T13:34:06;4.37;;;2.30;;
19643;SDS011;9970;-36.854;174.870;2023-05-27T13:36:38;6.67;;;1.93;;
19643;SDS011;9970;-36.854;174.870;2023-05-27T13:39:11;2.60;;;1.90;;
19643;SDS011;9970;-36.854;174.870;2023-05-27T13:41:44;3.60;;;2.10;;
19643;SDS011;9970;-36.854;174.870;2023-05-27T13:44:17;3.30;;;2.20;;
19643;SDS011;9970;-36.854;174.870;2023-05-27T13:46:50;3.63;;;2.00;;
19643;SDS011;9970;-36.854;174.870;2023-05-27T13:49:23;4.53;;;2.70;;
19643;SDS011;9970;-36.854;174.870;2023-05-27T13:51:57;4.37;;;2.13;;
19643;SDS011;9970;-36.854;174.870;2023-05-27T13:54:30;9.47;;;2.43;;
19643;SDS011;9970;-36.854;174.870;2023-05-27T13:57:03;5.30;;;2.10;;
19643;SDS011;9970;-36.854;174.870;2023-05-27T13:59:36;8.90;;;3.20;;
19643;SDS011;9970;-36.854;174.870;2023-05-27T14:02:09;4.10;;;2.00;;
19643;SDS011;9970;-36.854;174.870;2023-05-27T14:04:42;2.37;;;2.20;;
19643;SDS011;9970;-36.854;174.870;2023-05-27T14:07:14;5.63;;;1.90;;
19643;SDS011;9970;-36.854;174.870;2023-05-27T14:09:47;8.23;;;3.37;;
19643;SDS011;9970;-36.854;174.870;2023-05-27T14:12:21;2.20;;;1.77;;
19643;SDS011;9970;-36.854;174.870;2023-05-27T14:14:55;7.93;;;2.80;;
19643;SDS011;9970;-36.854;174.870;2023-05-27T14:17:28;2.80;;;1.50;;
19643;SDS011;9970;-36.854;174.870;2023-05-27T14:20:01;2.83;;;1.70;;
19643;SDS011;9970;-36.854;174.870;2023-05-27T14:22:39;3.10;;;2.17;;
19643;SDS011;9970;-36.854;174.870;2023-05-27T14:25:12;6.70;;;2.10;;
19643;SDS011;9970;-36.854;174.870;2023-05-27T14:27:45;3.87;;;2.20;;
19643;SDS011;9970;-36.854;174.870;2023-05-27T14:30:18;12.50;;;2.43;;
19643;SDS011;9970;-36.854;174.870;2023-05-27T14:32:51;2.67;;;2.50;;
19643;SDS011;9970;-36.854;174.870;2023-05-27T14:35:25;4.30;;;2.13;;
19643;SDS011;9970;-36.854;174.870;2023-05-27T14:37:57;2.83;;;1.70;;
19643;SDS011;9970;-36.854;174.870;2023-05-27T14:40:30;7.50;;;2.27;;
19643;SDS011;9970;-36.854;174.870;2023-05-27T14:43:04;4.13;;;2.00;;
19643;SDS011;9970;-36.854;174.870;2023-05-27T14:45:37;5.43;;;1.90;;
19643;SDS011;9970;-36.854;174.870;2023-05-27T14:48:11;1.70;;;1.60;;
19643;SDS011;9970;-36.854;174.870;2023-05-27T14:50:44;7.37;;;2.10;;
19643;SDS011;9970;-36.854;174.870;2023-05-27T14:53:17;3.87;;;1.60;;
19643;SDS011;9970;-36.854;174.870;2023-05-27T14:55:50;5.23;;;1.63;;
19643;SDS011;9970;-36.854;174.870;2023-05-27T14:58:24;4.90;;;1.90;;
19643;SDS011;9970;-36.854;174.870;2023-05-27T15:00:57;2.77;;;1.57;;